sensor_id;sensor_type;location;lat;lon;timestamp;temperature;humidity
8707;DHT22;4390;49.302;9.306;2023-03-11T00:00:55;2.30;92.30
8707;DHT22;4390;49.302;9.306;2023-03-11T00:03:21;2.50;91.80
8707;DHT22;4390;49.302;9.306;2023-03-11T00:05:49;2.60;91.80
8707;DHT22;4390;49.302;9.306;2023-03-11T00:08:19;2.70;91.40
8707;DHT22;4390;49.302;9.306;2023-03-11T00:10:51;2.80;90.90
8707;DHT22;4390;49.302;9.306;2023-03-11T00:13:18;3.00;90.90
8707;DHT22;4390;49.302;9.306;2023-03-11T00:15:46;3.00;90.70
8707;DHT22;4390;49.302;9.306;2023-03-11T00:18:15;3.10;90.40
8707;DHT22;4390;49.302;9.306;2023-03-11T00:20:44;3.20;90.30
8707;DHT22;4390;49.302;9.306;2023-03-11T00:23:13;3.20;90.20
8707;DHT22;4390;49.302;9.306;2023-03-11T00:25:43;3.10;90.00
8707;DHT22;4390;49.302;9.306;2023-03-11T00:28:10;2.60;89.70
8707;DHT22;4390;49.302;9.306;2023-03-11T00:30:42;2.40;89.50
8707;DHT22;4390;49.302;9.306;2023-03-11T00:33:30;2.10;89.90
8707;DHT22;4390;49.302;9.306;2023-03-11T00:35:57;2.20;90.00
8707;DHT22;4390;49.302;9.306;2023-03-11T00:38:24;2.50;89.30
8707;DHT22;4390;49.302;9.306;2023-03-11T00:40:50;2.40;87.40
8707;DHT22;4390;49.302;9.306;2023-03-11T00:43:17;2.10;87.00
8707;DHT22;4390;49.302;9.306;2023-03-11T00:45:44;1.60;87.70
8707;DHT22;4390;49.302;9.306;2023-03-11T00:48:12;1.40;88.50
8707;DHT22;4390;49.302;9.306;2023-03-11T00:50:41;1.30;89.30
8707;DHT22;4390;49.302;9.306;2023-03-11T00:53:09;1.40;88.90
8707;DHT22;4390;49.302;9.306;2023-03-11T00:55:37;1.40;88.90
8707;DHT22;4390;49.302;9.306;2023-03-11T00:58:07;1.40;88.90
8707;DHT22;4390;49.302;9.306;2023-03-11T01:00:39;1.50;88.60
8707;DHT22;4390;49.302;9.306;2023-03-11T01:03:06;1.60;88.20
8707;DHT22;4390;49.302;9.306;2023-03-11T01:05:33;1.40;87.90
8707;DHT22;4390;49.302;9.306;2023-03-11T01:08:01;1.40;88.00
8707;DHT22;4390;49.302;9.306;2023-03-11T01:10:30;1.30;87.00
8707;DHT22;4390;49.302;9.306;2023-03-11T01:12:57;1.20;87.80
8707;DHT22;4390;49.302;9.306;2023-03-11T01:15:29;1.30;87.60
8707;DHT22;4390;49.302;9.306;2023-03-11T01:17:57;1.30;86.70
8707;DHT22;4390;49.302;9.306;2023-03-11T01:20:24;1.40;86.40
8707;DHT22;4390;49.302;9.306;2023-03-11T01:22:51;1.10;86.10
8707;DHT22;4390;49.302;9.306;2023-03-11T01:25:20;1.20;86.80
8707;DHT22;4390;49.302;9.306;2023-03-11T01:27:47;1.40;86.30
8707;DHT22;4390;49.302;9.306;2023-03-11T01:30:21;1.20;85.60
8707;DHT22;4390;49.302;9.306;2023-03-11T01:32:50;1.00;85.80
8707;DHT22;4390;49.302;9.306;2023-03-11T01:35:19;1.00;86.50
8707;DHT22;4390;49.302;9.306;2023-03-11T01:37:46;1.20;86.20
8707;DHT22;4390;49.302;9.306;2023-03-11T01:42:51;1.20;85.50
8707;DHT22;4390;49.302;9.306;2023-03-11T01:45:41;1.30;85.90
8707;DHT22;4390;49.302;9.306;2023-03-11T01:48:25;1.50;85.50
8707;DHT22;4390;49.302;9.306;2023-03-11T01:50:52;1.50;85.30
8707;DHT22;4390;49.302;9.306;2023-03-11T01:53:19;1.60;85.70
8707;DHT22;4390;49.302;9.306;2023-03-11T01:55:47;1.70;85.60
8707;DHT22;4390;49.302;9.306;2023-03-11T01:58:22;1.80;85.30
8707;DHT22;4390;49.302;9.306;2023-03-11T02:00:50;1.90;84.80
8707;DHT22;4390;49.302;9.306;2023-03-11T02:03:23;1.80;84.90
8707;DHT22;4390;49.302;9.306;2023-03-11T02:05:53;1.90;86.10
8707;DHT22;4390;49.302;9.306;2023-03-11T02:08:21;1.80;86.50
8707;DHT22;4390;49.302;9.306;2023-03-11T02:10:49;1.90;85.40
8707;DHT22;4390;49.302;9.306;2023-03-11T02:13:18;1.70;85.30
8707;DHT22;4390;49.302;9.306;2023-03-11T02:15:45;1.60;85.10
8707;DHT22;4390;49.302;9.306;2023-03-11T02:18:13;1.40;85.00
8707;DHT22;4390;49.302;9.306;2023-03-11T02:23:46;1.30;85.70
8707;DHT22;4390;49.302;9.306;2023-03-11T02:29:03;1.50;86.10
8707;DHT22;4390;49.302;9.306;2023-03-11T02:31:31;1.30;85.50
8707;DHT22;4390;49.302;9.306;2023-03-11T02:34:01;1.20;85.70
8707;DHT22;4390;49.302;9.306;2023-03-11T02:36:37;1.20;86.20
8707;DHT22;4390;49.302;9.306;2023-03-11T02:39:06;1.40;86.00
8707;DHT22;4390;49.302;9.306;2023-03-11T02:41:37;1.30;85.60
8707;DHT22;4390;49.302;9.306;2023-03-11T02:44:11;1.20;86.00
8707;DHT22;4390;49.302;9.306;2023-03-11T02:46:40;1.10;86.20
8707;DHT22;4390;49.302;9.306;2023-03-11T02:49:10;1.20;86.30
8707;DHT22;4390;49.302;9.306;2023-03-11T02:51:37;1.30;86.50
8707;DHT22;4390;49.302;9.306;2023-03-11T02:54:05;1.70;85.60
8707;DHT22;4390;49.302;9.306;2023-03-11T02:56:33;1.60;85.10
8707;DHT22;4390;49.302;9.306;2023-03-11T02:59:00;1.50;85.60
8707;DHT22;4390;49.302;9.306;2023-03-11T03:01:28;1.50;85.80
8707;DHT22;4390;49.302;9.306;2023-03-11T03:03:55;1.40;85.80
8707;DHT22;4390;49.302;9.306;2023-03-11T03:06:22;1.40;85.90
8707;DHT22;4390;49.302;9.306;2023-03-11T03:08:51;1.30;85.90
8707;DHT22;4390;49.302;9.306;2023-03-11T03:11:17;1.30;85.90
8707;DHT22;4390;49.302;9.306;2023-03-11T03:13:45;1.40;85.80
8707;DHT22;4390;49.302;9.306;2023-03-11T03:16:12;1.50;85.80
8707;DHT22;4390;49.302;9.306;2023-03-11T03:18:39;1.50;85.60
8707;DHT22;4390;49.302;9.306;2023-03-11T03:21:07;1.30;85.70
8707;DHT22;4390;49.302;9.306;2023-03-11T03:23:33;1.20;85.90
8707;DHT22;4390;49.302;9.306;2023-03-11T03:26:06;1.20;86.20
8707;DHT22;4390;49.302;9.306;2023-03-11T03:28:36;1.20;86.20
8707;DHT22;4390;49.302;9.306;2023-03-11T03:31:05;1.20;86.30
8707;DHT22;4390;49.302;9.306;2023-03-11T03:33:34;1.20;86.60
8707;DHT22;4390;49.302;9.306;2023-03-11T03:36:10;1.00;86.60
8707;DHT22;4390;49.302;9.306;2023-03-11T03:38:41;1.10;86.90
8707;DHT22;4390;49.302;9.306;2023-03-11T03:41:08;1.20;86.70
8707;DHT22;4390;49.302;9.306;2023-03-11T03:43:39;1.50;86.50
8707;DHT22;4390;49.302;9.306;2023-03-11T03:46:06;1.50;86.20
8707;DHT22;4390;49.302;9.306;2023-03-11T03:48:38;1.60;85.90
8707;DHT22;4390;49.302;9.306;2023-03-11T03:51:08;1.50;85.90
8707;DHT22;4390;49.302;9.306;2023-03-11T03:53:40;1.50;86.10
8707;DHT22;4390;49.302;9.306;2023-03-11T03:56:09;1.60;86.10
8707;DHT22;4390;49.302;9.306;2023-03-11T03:58:37;1.70;85.90
8707;DHT22;4390;49.302;9.306;2023-03-11T04:01:05;1.60;85.80
8707;DHT22;4390;49.302;9.306;2023-03-11T04:03:33;1.60;86.10
8707;DHT22;4390;49.302;9.306;2023-03-11T04:06:14;1.50;86.00
8707;DHT22;4390;49.302;9.306;2023-03-11T04:08:42;1.30;86.20
8707;DHT22;4390;49.302;9.306;2023-03-11T04:11:10;1.10;86.70
8707;DHT22;4390;49.302;9.306;2023-03-11T04:13:37;1.10;86.90
8707;DHT22;4390;49.302;9.306;2023-03-11T04:16:06;1.10;87.10
8707;DHT22;4390;49.302;9.306;2023-03-11T04:18:33;1.20;87.00
8707;DHT22;4390;49.302;9.306;2023-03-11T04:21:04;1.30;86.90
8707;DHT22;4390;49.302;9.306;2023-03-11T04:23:32;1.30;86.50
8707;DHT22;4390;49.302;9.306;2023-03-11T04:26:00;1.40;86.50
8707;DHT22;4390;49.302;9.306;2023-03-11T04:28:26;1.50;86.50
8707;DHT22;4390;49.302;9.306;2023-03-11T04:30:53;1.60;86.10
8707;DHT22;4390;49.302;9.306;2023-03-11T04:33:20;1.60;85.80
8707;DHT22;4390;49.302;9.306;2023-03-11T04:35:47;1.50;86.40
8707;DHT22;4390;49.302;9.306;2023-03-11T04:38:16;1.40;86.40
8707;DHT22;4390;49.302;9.306;2023-03-11T04:40:43;1.40;86.60
8707;DHT22;4390;49.302;9.306;2023-03-11T04:43:10;1.30;87.30
8707;DHT22;4390;49.302;9.306;2023-03-11T04:45:38;1.40;88.00
8707;DHT22;4390;49.302;9.306;2023-03-11T04:48:05;1.30;86.90
8707;DHT22;4390;49.302;9.306;2023-03-11T04:50:32;1.10;87.00
8707;DHT22;4390;49.302;9.306;2023-03-11T04:52:59;0.90;87.00
8707;DHT22;4390;49.302;9.306;2023-03-11T04:55:26;0.80;87.20
8707;DHT22;4390;49.302;9.306;2023-03-11T04:57:53;0.70;87.50
8707;DHT22;4390;49.302;9.306;2023-03-11T05:00:21;0.70;87.60
8707;DHT22;4390;49.302;9.306;2023-03-11T05:02:57;0.80;87.60
8707;DHT22;4390;49.302;9.306;2023-03-11T05:05:24;1.00;87.20
8707;DHT22;4390;49.302;9.306;2023-03-11T05:07:51;1.10;87.00
8707;DHT22;4390;49.302;9.306;2023-03-11T05:10:18;1.00;87.30
8707;DHT22;4390;49.302;9.306;2023-03-11T05:12:50;1.20;88.10
8707;DHT22;4390;49.302;9.306;2023-03-11T05:15:19;1.20;88.20
8707;DHT22;4390;49.302;9.306;2023-03-11T05:17:46;1.40;87.60
8707;DHT22;4390;49.302;9.306;2023-03-11T05:20:13;1.40;86.80
8707;DHT22;4390;49.302;9.306;2023-03-11T05:22:42;1.30;86.80
8707;DHT22;4390;49.302;9.306;2023-03-11T05:25:09;1.40;87.00
8707;DHT22;4390;49.302;9.306;2023-03-11T05:27:36;1.50;86.40
8707;DHT22;4390;49.302;9.306;2023-03-11T05:30:05;1.50;86.60
8707;DHT22;4390;49.302;9.306;2023-03-11T05:32:34;1.60;86.30
8707;DHT22;4390;49.302;9.306;2023-03-11T05:35:02;1.50;86.40
8707;DHT22;4390;49.302;9.306;2023-03-11T05:37:30;1.60;86.30
8707;DHT22;4390;49.302;9.306;2023-03-11T05:39:59;1.70;85.90
8707;DHT22;4390;49.302;9.306;2023-03-11T05:42:26;1.90;86.00
8707;DHT22;4390;49.302;9.306;2023-03-11T05:44:55;1.90;85.70
8707;DHT22;4390;49.302;9.306;2023-03-11T05:47:22;1.80;85.90
8707;DHT22;4390;49.302;9.306;2023-03-11T05:49:49;1.70;85.90
8707;DHT22;4390;49.302;9.306;2023-03-11T05:52:18;1.60;86.20
8707;DHT22;4390;49.302;9.306;2023-03-11T05:54:48;1.60;86.30
8707;DHT22;4390;49.302;9.306;2023-03-11T05:57:16;1.60;86.60
8707;DHT22;4390;49.302;9.306;2023-03-11T05:59:44;1.50;86.50
8707;DHT22;4390;49.302;9.306;2023-03-11T06:02:11;1.50;86.50
8707;DHT22;4390;49.302;9.306;2023-03-11T06:04:38;1.30;86.50
8707;DHT22;4390;49.302;9.306;2023-03-11T06:07:07;1.20;86.80
8707;DHT22;4390;49.302;9.306;2023-03-11T06:12:33;1.10;87.40
8707;DHT22;4390;49.302;9.306;2023-03-11T06:15:10;1.30;87.30
8707;DHT22;4390;49.302;9.306;2023-03-11T06:17:38;1.20;87.30
8707;DHT22;4390;49.302;9.306;2023-03-11T06:20:07;1.00;87.40
8707;DHT22;4390;49.302;9.306;2023-03-11T06:22:36;0.90;87.90
8707;DHT22;4390;49.302;9.306;2023-03-11T06:25:07;0.90;88.10
8707;DHT22;4390;49.302;9.306;2023-03-11T06:27:35;1.00;88.00
8707;DHT22;4390;49.302;9.306;2023-03-11T06:30:02;1.00;87.90
8707;DHT22;4390;49.302;9.306;2023-03-11T06:32:34;1.10;87.80
8707;DHT22;4390;49.302;9.306;2023-03-11T06:35:03;1.10;87.80
8707;DHT22;4390;49.302;9.306;2023-03-11T06:37:30;1.10;88.10
8707;DHT22;4390;49.302;9.306;2023-03-11T06:39:58;1.00;88.50
8707;DHT22;4390;49.302;9.306;2023-03-11T06:42:25;1.00;88.40
8707;DHT22;4390;49.302;9.306;2023-03-11T06:44:55;1.10;88.70
8707;DHT22;4390;49.302;9.306;2023-03-11T06:47:22;1.10;88.60
8707;DHT22;4390;49.302;9.306;2023-03-11T06:49:50;1.20;88.90
8707;DHT22;4390;49.302;9.306;2023-03-11T06:52:17;1.20;88.70
8707;DHT22;4390;49.302;9.306;2023-03-11T06:54:47;1.20;88.40
8707;DHT22;4390;49.302;9.306;2023-03-11T06:57:15;1.10;88.60
8707;DHT22;4390;49.302;9.306;2023-03-11T06:59:43;1.30;88.70
8707;DHT22;4390;49.302;9.306;2023-03-11T07:02:13;1.30;88.20
8707;DHT22;4390;49.302;9.306;2023-03-11T07:04:41;1.30;88.00
8707;DHT22;4390;49.302;9.306;2023-03-11T07:07:08;1.30;88.30
8707;DHT22;4390;49.302;9.306;2023-03-11T07:09:36;1.30;88.50
8707;DHT22;4390;49.302;9.306;2023-03-11T07:12:18;1.30;88.50
8707;DHT22;4390;49.302;9.306;2023-03-11T07:15:08;1.50;88.20
8707;DHT22;4390;49.302;9.306;2023-03-11T07:17:38;1.50;87.50
8707;DHT22;4390;49.302;9.306;2023-03-11T07:20:12;1.40;87.60
8707;DHT22;4390;49.302;9.306;2023-03-11T07:22:49;1.50;87.80
8707;DHT22;4390;49.302;9.306;2023-03-11T07:25:18;1.60;87.70
8707;DHT22;4390;49.302;9.306;2023-03-11T07:27:45;1.60;87.30
8707;DHT22;4390;49.302;9.306;2023-03-11T07:30:12;1.50;87.50
8707;DHT22;4390;49.302;9.306;2023-03-11T07:32:43;1.70;87.90
8707;DHT22;4390;49.302;9.306;2023-03-11T07:35:13;1.70;87.50
8707;DHT22;4390;49.302;9.306;2023-03-11T07:37:45;2.00;87.20
8707;DHT22;4390;49.302;9.306;2023-03-11T07:40:16;2.10;86.90
8707;DHT22;4390;49.302;9.306;2023-03-11T07:42:43;2.00;86.30
8707;DHT22;4390;49.302;9.306;2023-03-11T07:45:10;1.90;86.50
8707;DHT22;4390;49.302;9.306;2023-03-11T07:47:37;1.80;87.00
8707;DHT22;4390;49.302;9.306;2023-03-11T07:50:03;1.80;87.10
8707;DHT22;4390;49.302;9.306;2023-03-11T07:52:31;1.90;87.00
8707;DHT22;4390;49.302;9.306;2023-03-11T07:54:58;1.90;87.00
8707;DHT22;4390;49.302;9.306;2023-03-11T07:57:25;2.00;86.90
8707;DHT22;4390;49.302;9.306;2023-03-11T07:59:51;2.10;87.10
8707;DHT22;4390;49.302;9.306;2023-03-11T08:02:18;2.20;86.90
8707;DHT22;4390;49.302;9.306;2023-03-11T08:04:45;2.50;86.50
8707;DHT22;4390;49.302;9.306;2023-03-11T08:07:21;2.60;86.20
8707;DHT22;4390;49.302;9.306;2023-03-11T08:09:51;2.70;85.60
8707;DHT22;4390;49.302;9.306;2023-03-11T08:12:18;2.90;85.50
8707;DHT22;4390;49.302;9.306;2023-03-11T08:14:44;2.80;85.10
8707;DHT22;4390;49.302;9.306;2023-03-11T08:17:11;2.60;84.90
8707;DHT22;4390;49.302;9.306;2023-03-11T08:19:38;2.60;85.40
8707;DHT22;4390;49.302;9.306;2023-03-11T08:22:05;2.30;85.20
8707;DHT22;4390;49.302;9.306;2023-03-11T08:24:32;2.20;86.00
8707;DHT22;4390;49.302;9.306;2023-03-11T08:26:59;2.20;86.20
8707;DHT22;4390;49.302;9.306;2023-03-11T08:29:26;2.30;85.80
8707;DHT22;4390;49.302;9.306;2023-03-11T08:31:52;2.10;86.00
8707;DHT22;4390;49.302;9.306;2023-03-11T08:34:22;1.90;86.10
8707;DHT22;4390;49.302;9.306;2023-03-11T08:36:49;2.00;86.30
8707;DHT22;4390;49.302;9.306;2023-03-11T08:39:16;2.20;86.40
8707;DHT22;4390;49.302;9.306;2023-03-11T08:41:44;2.30;85.40
8707;DHT22;4390;49.302;9.306;2023-03-11T08:44:11;2.10;85.30
8707;DHT22;4390;49.302;9.306;2023-03-11T08:46:38;2.20;85.40
8707;DHT22;4390;49.302;9.306;2023-03-11T08:49:05;2.10;85.00
8707;DHT22;4390;49.302;9.306;2023-03-11T08:51:33;2.20;85.50
8707;DHT22;4390;49.302;9.306;2023-03-11T08:54:00;2.40;85.50
8707;DHT22;4390;49.302;9.306;2023-03-11T08:56:27;2.40;85.40
8707;DHT22;4390;49.302;9.306;2023-03-11T08:58:54;2.30;85.10
8707;DHT22;4390;49.302;9.306;2023-03-11T09:01:21;2.40;85.20
8707;DHT22;4390;49.302;9.306;2023-03-11T09:03:54;2.60;85.10
8707;DHT22;4390;49.302;9.306;2023-03-11T09:06:23;2.70;85.40
8707;DHT22;4390;49.302;9.306;2023-03-11T09:08:50;2.60;85.30
8707;DHT22;4390;49.302;9.306;2023-03-11T09:11:17;2.80;84.90
8707;DHT22;4390;49.302;9.306;2023-03-11T09:13:44;2.80;84.60
8707;DHT22;4390;49.302;9.306;2023-03-11T09:16:16;2.90;84.30
8707;DHT22;4390;49.302;9.306;2023-03-11T09:18:44;2.50;84.20
8707;DHT22;4390;49.302;9.306;2023-03-11T09:21:11;2.50;84.70
8707;DHT22;4390;49.302;9.306;2023-03-11T09:23:39;2.70;84.70
8707;DHT22;4390;49.302;9.306;2023-03-11T09:26:09;3.00;84.00
8707;DHT22;4390;49.302;9.306;2023-03-11T09:28:36;3.10;83.50
8707;DHT22;4390;49.302;9.306;2023-03-11T09:31:02;3.30;83.40
8707;DHT22;4390;49.302;9.306;2023-03-11T09:33:30;3.10;83.50
8707;DHT22;4390;49.302;9.306;2023-03-11T09:35:57;2.90;83.60
8707;DHT22;4390;49.302;9.306;2023-03-11T09:38:24;2.80;83.40
8707;DHT22;4390;49.302;9.306;2023-03-11T09:41:01;2.80;83.60
8707;DHT22;4390;49.302;9.306;2023-03-11T09:44:04;2.80;83.60
8707;DHT22;4390;49.302;9.306;2023-03-11T09:52:14;3.40;82.50
8707;DHT22;4390;49.302;9.306;2023-03-11T09:54:46;3.50;81.80
8707;DHT22;4390;49.302;9.306;2023-03-11T09:57:18;3.60;81.90
8707;DHT22;4390;49.302;9.306;2023-03-11T09:59:47;3.60;80.90
8707;DHT22;4390;49.302;9.306;2023-03-11T10:02:17;3.80;81.20
8707;DHT22;4390;49.302;9.306;2023-03-11T10:05:00;3.80;80.70
8707;DHT22;4390;49.302;9.306;2023-03-11T10:07:33;3.90;80.60
8707;DHT22;4390;49.302;9.306;2023-03-11T10:10:02;4.20;81.00
8707;DHT22;4390;49.302;9.306;2023-03-11T10:17:49;6.40;78.90
8707;DHT22;4390;49.302;9.306;2023-03-11T10:20:26;7.10;76.90
8707;DHT22;4390;49.302;9.306;2023-03-11T10:25:47;7.40;74.40
8707;DHT22;4390;49.302;9.306;2023-03-11T10:28:17;7.30;72.80
8707;DHT22;4390;49.302;9.306;2023-03-11T10:30:48;6.70;73.10
8707;DHT22;4390;49.302;9.306;2023-03-11T10:33:48;5.90;74.20
8707;DHT22;4390;49.302;9.306;2023-03-11T10:36:41;5.60;75.60
8707;DHT22;4390;49.302;9.306;2023-03-11T10:39:10;5.00;75.80
8707;DHT22;4390;49.302;9.306;2023-03-11T10:41:49;4.80;76.50
8707;DHT22;4390;49.302;9.306;2023-03-11T10:44:27;4.90;77.20
8707;DHT22;4390;49.302;9.306;2023-03-11T10:46:54;6.10;77.20
8707;DHT22;4390;49.302;9.306;2023-03-11T10:49:21;7.80;75.30
8707;DHT22;4390;49.302;9.306;2023-03-11T10:51:50;9.00;73.00
8707;DHT22;4390;49.302;9.306;2023-03-11T10:54:27;9.50;71.30
8707;DHT22;4390;49.302;9.306;2023-03-11T10:56:59;10.50;70.20
8707;DHT22;4390;49.302;9.306;2023-03-11T10:59:45;10.60;68.30
8707;DHT22;4390;49.302;9.306;2023-03-11T11:02:28;10.10;68.50
8707;DHT22;4390;49.302;9.306;2023-03-11T11:07:37;7.00;70.80
8707;DHT22;4390;49.302;9.306;2023-03-11T11:15:39;9.90;68.90
8707;DHT22;4390;49.302;9.306;2023-03-11T11:18:22;9.80;69.00
8707;DHT22;4390;49.302;9.306;2023-03-11T11:21:16;9.70;68.40
8707;DHT22;4390;49.302;9.306;2023-03-11T11:24:23;9.40;68.40
8707;DHT22;4390;49.302;9.306;2023-03-11T11:27:22;8.80;69.60
8707;DHT22;4390;49.302;9.306;2023-03-11T11:30:15;8.20;70.10
8707;DHT22;4390;49.302;9.306;2023-03-11T11:32:43;7.40;71.00
8707;DHT22;4390;49.302;9.306;2023-03-11T11:35:15;6.70;72.60
8707;DHT22;4390;49.302;9.306;2023-03-11T11:37:54;6.30;73.60
8707;DHT22;4390;49.302;9.306;2023-03-11T11:40:30;6.10;73.60
8707;DHT22;4390;49.302;9.306;2023-03-11T11:43:02;6.70;73.80
8707;DHT22;4390;49.302;9.306;2023-03-11T11:48:02;10.90;69.00
8707;DHT22;4390;49.302;9.306;2023-03-11T11:50:43;11.50;66.90
8707;DHT22;4390;49.302;9.306;2023-03-11T11:55:55;10.30;66.30
8707;DHT22;4390;49.302;9.306;2023-03-11T11:58:22;9.30;67.80
8707;DHT22;4390;49.302;9.306;2023-03-11T12:01:06;8.20;69.00
8707;DHT22;4390;49.302;9.306;2023-03-11T12:03:59;7.60;70.60
8707;DHT22;4390;49.302;9.306;2023-03-11T12:14:49;8.00;72.20
8707;DHT22;4390;49.302;9.306;2023-03-11T12:17:20;9.60;70.50
8707;DHT22;4390;49.302;9.306;2023-03-11T12:25:21;9.50;67.70
8707;DHT22;4390;49.302;9.306;2023-03-11T12:27:58;8.80;68.50
8707;DHT22;4390;49.302;9.306;2023-03-11T12:30:32;8.90;69.60
8707;DHT22;4390;49.302;9.306;2023-03-11T12:33:15;10.20;68.80
8707;DHT22;4390;49.302;9.306;2023-03-11T12:35:49;11.60;66.90
8707;DHT22;4390;49.302;9.306;2023-03-11T12:38:37;12.90;64.40
8707;DHT22;4390;49.302;9.306;2023-03-11T12:46:08;12.00;63.50
8707;DHT22;4390;49.302;9.306;2023-03-11T12:48:42;11.60;62.50
8707;DHT22;4390;49.302;9.306;2023-03-11T12:53:55;10.10;63.70
8707;DHT22;4390;49.302;9.306;2023-03-11T12:56:44;9.80;64.70
8707;DHT22;4390;49.302;9.306;2023-03-11T13:02:55;9.10;65.20
8707;DHT22;4390;49.302;9.306;2023-03-11T13:05:27;8.10;66.00
8707;DHT22;4390;49.302;9.306;2023-03-11T13:08:09;7.30;68.10
8707;DHT22;4390;49.302;9.306;2023-03-11T13:10:52;6.70;69.10
8707;DHT22;4390;49.302;9.306;2023-03-11T13:15:56;6.40;70.40
8707;DHT22;4390;49.302;9.306;2023-03-11T13:18:24;6.40;70.20
8707;DHT22;4390;49.302;9.306;2023-03-11T13:20:57;6.50;70.60
8707;DHT22;4390;49.302;9.306;2023-03-11T13:23:27;6.70;70.60
8707;DHT22;4390;49.302;9.306;2023-03-11T13:37:32;8.30;67.90
8707;DHT22;4390;49.302;9.306;2023-03-11T13:42:51;8.00;68.40
8707;DHT22;4390;49.302;9.306;2023-03-11T13:45:37;8.30;68.50
8707;DHT22;4390;49.302;9.306;2023-03-11T13:48:16;8.80;68.40
8707;DHT22;4390;49.302;9.306;2023-03-11T13:50:49;9.20;67.90
8707;DHT22;4390;49.302;9.306;2023-03-11T13:53:21;9.60;66.60
8707;DHT22;4390;49.302;9.306;2023-03-11T13:55:51;10.10;66.10
8707;DHT22;4390;49.302;9.306;2023-03-11T13:58:22;10.40;65.10
8707;DHT22;4390;49.302;9.306;2023-03-11T14:00:54;10.40;64.30
8707;DHT22;4390;49.302;9.306;2023-03-11T14:03:23;10.30;64.50
8707;DHT22;4390;49.302;9.306;2023-03-11T14:06:20;10.10;65.00
8707;DHT22;4390;49.302;9.306;2023-03-11T14:08:54;9.40;65.50
8707;DHT22;4390;49.302;9.306;2023-03-11T14:11:27;9.00;65.50
8707;DHT22;4390;49.302;9.306;2023-03-11T14:13:54;8.60;66.70
8707;DHT22;4390;49.302;9.306;2023-03-11T14:16:30;8.60;66.50
8707;DHT22;4390;49.302;9.306;2023-03-11T14:19:02;8.00;67.20
8707;DHT22;4390;49.302;9.306;2023-03-11T14:21:29;7.60;68.90
8707;DHT22;4390;49.302;9.306;2023-03-11T14:24:01;7.60;68.10
8707;DHT22;4390;49.302;9.306;2023-03-11T14:26:30;7.70;67.90
8707;DHT22;4390;49.302;9.306;2023-03-11T14:29:06;7.60;67.60
8707;DHT22;4390;49.302;9.306;2023-03-11T14:31:39;7.60;68.20
8707;DHT22;4390;49.302;9.306;2023-03-11T14:34:12;7.60;67.80
8707;DHT22;4390;49.302;9.306;2023-03-11T14:36:43;7.50;68.10
8707;DHT22;4390;49.302;9.306;2023-03-11T14:44:33;7.40;69.10
8707;DHT22;4390;49.302;9.306;2023-03-11T14:47:09;7.30;69.20
8707;DHT22;4390;49.302;9.306;2023-03-11T14:49:37;7.20;68.80
8707;DHT22;4390;49.302;9.306;2023-03-11T14:52:12;7.00;68.50
8707;DHT22;4390;49.302;9.306;2023-03-11T14:54:40;7.10;68.70
8707;DHT22;4390;49.302;9.306;2023-03-11T14:57:33;7.30;69.30
8707;DHT22;4390;49.302;9.306;2023-03-11T15:00:02;7.10;68.30
8707;DHT22;4390;49.302;9.306;2023-03-11T15:05:27;7.00;68.40
8707;DHT22;4390;49.302;9.306;2023-03-11T15:07:59;7.10;68.50
8707;DHT22;4390;49.302;9.306;2023-03-11T15:10:27;7.00;68.60
8707;DHT22;4390;49.302;9.306;2023-03-11T15:13:14;7.30;69.00
8707;DHT22;4390;49.302;9.306;2023-03-11T15:15:41;7.70;67.40
8707;DHT22;4390;49.302;9.306;2023-03-11T15:18:21;7.80;67.00
8707;DHT22;4390;49.302;9.306;2023-03-11T15:21:22;7.70;66.00
8707;DHT22;4390;49.302;9.306;2023-03-11T15:23:56;7.20;65.70
8707;DHT22;4390;49.302;9.306;2023-03-11T15:26:27;6.80;66.80
8707;DHT22;4390;49.302;9.306;2023-03-11T15:29:00;6.70;67.10
8707;DHT22;4390;49.302;9.306;2023-03-11T15:31:37;6.60;67.90
8707;DHT22;4390;49.302;9.306;2023-03-11T15:39:20;6.80;68.70
8707;DHT22;4390;49.302;9.306;2023-03-11T15:42:02;7.00;67.90
8707;DHT22;4390;49.302;9.306;2023-03-11T15:47:22;6.70;67.30
8707;DHT22;4390;49.302;9.306;2023-03-11T15:49:49;6.60;67.80
8707;DHT22;4390;49.302;9.306;2023-03-11T15:52:16;6.60;67.70
8707;DHT22;4390;49.302;9.306;2023-03-11T15:54:44;6.60;67.80
8707;DHT22;4390;49.302;9.306;2023-03-11T15:57:24;6.60;67.70
8707;DHT22;4390;49.302;9.306;2023-03-11T15:59:53;6.80;68.00
8707;DHT22;4390;49.302;9.306;2023-03-11T16:02:26;6.90;68.20
8707;DHT22;4390;49.302;9.306;2023-03-11T16:04:54;7.00;67.80
8707;DHT22;4390;49.302;9.306;2023-03-11T16:07:22;6.80;67.70
8707;DHT22;4390;49.302;9.306;2023-03-11T16:10:05;6.70;68.40
8707;DHT22;4390;49.302;9.306;2023-03-11T16:12:32;6.80;67.70
8707;DHT22;4390;49.302;9.306;2023-03-11T16:14:59;6.90;67.20
8707;DHT22;4390;49.302;9.306;2023-03-11T16:17:25;6.80;67.40
8707;DHT22;4390;49.302;9.306;2023-03-11T16:20:06;6.80;67.40
8707;DHT22;4390;49.302;9.306;2023-03-11T16:22:38;6.60;66.80
8707;DHT22;4390;49.302;9.306;2023-03-11T16:25:24;6.50;67.10
8707;DHT22;4390;49.302;9.306;2023-03-11T16:28:16;6.50;67.30
8707;DHT22;4390;49.302;9.306;2023-03-11T16:30:50;6.50;68.00
8707;DHT22;4390;49.302;9.306;2023-03-11T16:33:20;6.50;68.30
8707;DHT22;4390;49.302;9.306;2023-03-11T16:35:48;6.60;68.00
8707;DHT22;4390;49.302;9.306;2023-03-11T16:38:15;6.50;68.30
8707;DHT22;4390;49.302;9.306;2023-03-11T16:41:00;6.30;67.70
8707;DHT22;4390;49.302;9.306;2023-03-11T16:43:31;6.20;68.90
8707;DHT22;4390;49.302;9.306;2023-03-11T16:46:07;6.00;68.60
8707;DHT22;4390;49.302;9.306;2023-03-11T16:48:44;6.10;68.90
8707;DHT22;4390;49.302;9.306;2023-03-11T16:51:15;6.20;68.90
8707;DHT22;4390;49.302;9.306;2023-03-11T16:53:44;6.20;69.20
8707;DHT22;4390;49.302;9.306;2023-03-11T16:56:16;6.10;69.50
8707;DHT22;4390;49.302;9.306;2023-03-11T16:58:50;6.10;70.20
8707;DHT22;4390;49.302;9.306;2023-03-11T17:01:34;6.20;70.00
8707;DHT22;4390;49.302;9.306;2023-03-11T17:04:07;5.90;70.60
8707;DHT22;4390;49.302;9.306;2023-03-11T17:06:40;5.90;71.00
8707;DHT22;4390;49.302;9.306;2023-03-11T17:09:10;5.80;71.30
8707;DHT22;4390;49.302;9.306;2023-03-11T17:12:21;5.80;71.90
8707;DHT22;4390;49.302;9.306;2023-03-11T17:14:54;5.70;71.90
8707;DHT22;4390;49.302;9.306;2023-03-11T17:17:30;5.70;71.90
8707;DHT22;4390;49.302;9.306;2023-03-11T17:20:22;5.50;72.50
8707;DHT22;4390;49.302;9.306;2023-03-11T17:23:16;5.40;73.30
8707;DHT22;4390;49.302;9.306;2023-03-11T17:25:46;5.50;73.70
8707;DHT22;4390;49.302;9.306;2023-03-11T17:28:27;5.30;74.40
8707;DHT22;4390;49.302;9.306;2023-03-11T17:30:57;5.40;75.40
8707;DHT22;4390;49.302;9.306;2023-03-11T17:33:26;5.40;75.80
8707;DHT22;4390;49.302;9.306;2023-03-11T17:36:05;5.10;76.70
8707;DHT22;4390;49.302;9.306;2023-03-11T17:38:32;4.90;77.10
8707;DHT22;4390;49.302;9.306;2023-03-11T17:40:59;4.70;77.40
8707;DHT22;4390;49.302;9.306;2023-03-11T17:43:26;4.70;78.00
8707;DHT22;4390;49.302;9.306;2023-03-11T17:45:53;4.60;78.40
8707;DHT22;4390;49.302;9.306;2023-03-11T17:48:19;4.50;78.90
8707;DHT22;4390;49.302;9.306;2023-03-11T17:50:46;4.50;79.30
8707;DHT22;4390;49.302;9.306;2023-03-11T17:53:13;4.30;80.10
8707;DHT22;4390;49.302;9.306;2023-03-11T17:55:40;4.20;80.60
8707;DHT22;4390;49.302;9.306;2023-03-11T17:58:07;4.10;80.80
8707;DHT22;4390;49.302;9.306;2023-03-11T18:00:34;4.20;81.40
8707;DHT22;4390;49.302;9.306;2023-03-11T18:03:00;4.10;81.30
8707;DHT22;4390;49.302;9.306;2023-03-11T18:05:27;4.00;81.30
8707;DHT22;4390;49.302;9.306;2023-03-11T18:07:54;3.90;81.60
8707;DHT22;4390;49.302;9.306;2023-03-11T18:10:20;3.80;81.70
8707;DHT22;4390;49.302;9.306;2023-03-11T18:12:47;3.80;82.00
8707;DHT22;4390;49.302;9.306;2023-03-11T18:15:15;3.60;82.40
8707;DHT22;4390;49.302;9.306;2023-03-11T18:17:46;3.70;82.50
8707;DHT22;4390;49.302;9.306;2023-03-11T18:20:17;3.50;82.30